Terminal Aerodrome Forecast
Issued by NWS

Home | Current Version | Previous Version | Text Only | Print | Product List | Glossary On
Versions: 1 2 3 4 5 6 7 8 9 10 11 12 13
000
FTPA31 PHFO 290531
TAFHOG
TAF
PHOG 290531Z 2906/3006 06014G22KT P6SM FEW030 SCT060
     FM290800 06010G16KT P6SM VCSH SCT030 BKN060
     FM292000 06014G24KT P6SM FEW030 SCT060
     FM300400 06012G20KT P6SM VCSH SCT030 BKN060=

USA.gov is the U.S. government's official web portal to all federal, state and local government web resources and services.